sensor_id;sensor_type;location;lat;lon;timestamp;P1;durP1;ratioP1;P2;durP2;ratioP2
68074;SDS011;54864;52.002;5.468;2023-02-07T00:00:00;27.93;;;8.53;;
68074;SDS011;54864;52.002;5.468;2023-02-07T00:01:04;25.73;;;8.83;;
68074;SDS011;54864;52.002;5.468;2023-02-07T00:02:06;29.30;;;8.88;;
68074;SDS011;54864;52.002;5.468;2023-02-07T00:03:08;29.42;;;8.63;;
68074;SDS011;54864;52.002;5.468;2023-02-07T00:04:09;23.95;;;8.10;;
68074;SDS011;54864;52.002;5.468;2023-02-07T00:05:11;24.90;;;8.52;;
68074;SDS011;54864;52.002;5.468;2023-02-07T00:06:13;21.45;;;8.52;;
68074;SDS011;54864;52.002;5.468;2023-02-07T00:07:18;24.42;;;8.75;;
68074;SDS011;54864;52.002;5.468;2023-02-07T00:08:19;25.23;;;8.68;;
68074;SDS011;54864;52.002;5.468;2023-02-07T00:09:20;23.95;;;8.38;;
68074;SDS011;54864;52.002;5.468;2023-02-07T00:10:22;22.98;;;9.52;;
68074;SDS011;54864;52.002;5.468;2023-02-07T00:11:23;31.08;;;9.32;;
68074;SDS011;54864;52.002;5.468;2023-02-07T00:12:25;25.98;;;8.98;;
68074;SDS011;54864;52.002;5.468;2023-02-07T00:13:26;29.10;;;8.45;;
68074;SDS011;54864;52.002;5.468;2023-02-07T00:14:27;28.20;;;8.85;;
68074;SDS011;54864;52.002;5.468;2023-02-07T00:15:29;26.42;;;8.88;;
68074;SDS011;54864;52.002;5.468;2023-02-07T00:16:30;21.20;;;9.23;;
68074;SDS011;54864;52.002;5.468;2023-02-07T00:17:31;29.15;;;8.95;;
68074;SDS011;54864;52.002;5.468;2023-02-07T00:18:33;25.20;;;10.05;;
68074;SDS011;54864;52.002;5.468;2023-02-07T00:19:34;25.77;;;8.77;;
68074;SDS011;54864;52.002;5.468;2023-02-07T00:20:36;29.05;;;9.27;;
68074;SDS011;54864;52.002;5.468;2023-02-07T00:21:37;26.25;;;8.98;;
68074;SDS011;54864;52.002;5.468;2023-02-07T00:22:40;28.60;;;9.55;;
68074;SDS011;54864;52.002;5.468;2023-02-07T00:23:41;25.02;;;9.60;;
68074;SDS011;54864;52.002;5.468;2023-02-07T00:24:43;24.53;;;9.53;;
68074;SDS011;54864;52.002;5.468;2023-02-07T00:25:44;26.37;;;9.67;;
68074;SDS011;54864;52.002;5.468;2023-02-07T00:26:46;29.77;;;9.88;;
68074;SDS011;54864;52.002;5.468;2023-02-07T00:27:47;34.17;;;9.70;;
68074;SDS011;54864;52.002;5.468;2023-02-07T00:28:49;27.75;;;9.90;;
68074;SDS011;54864;52.002;5.468;2023-02-07T00:29:51;24.70;;;9.93;;
68074;SDS011;54864;52.002;5.468;2023-02-07T00:31:01;32.72;;;10.10;;
68074;SDS011;54864;52.002;5.468;2023-02-07T00:32:03;28.67;;;10.00;;
68074;SDS011;54864;52.002;5.468;2023-02-07T00:33:05;25.45;;;10.07;;
68074;SDS011;54864;52.002;5.468;2023-02-07T00:34:06;28.55;;;9.82;;
68074;SDS011;54864;52.002;5.468;2023-02-07T00:35:08;29.13;;;10.07;;
68074;SDS011;54864;52.002;5.468;2023-02-07T00:36:10;32.90;;;10.80;;
68074;SDS011;54864;52.002;5.468;2023-02-07T00:37:13;29.00;;;9.70;;
68074;SDS011;54864;52.002;5.468;2023-02-07T00:38:15;32.33;;;10.32;;
68074;SDS011;54864;52.002;5.468;2023-02-07T00:39:17;29.40;;;11.02;;
68074;SDS011;54864;52.002;5.468;2023-02-07T00:40:17;34.65;;;11.07;;
68074;SDS011;54864;52.002;5.468;2023-02-07T00:41:19;35.55;;;12.02;;
68074;SDS011;54864;52.002;5.468;2023-02-07T00:42:20;27.65;;;10.20;;
68074;SDS011;54864;52.002;5.468;2023-02-07T00:43:22;26.52;;;10.68;;
68074;SDS011;54864;52.002;5.468;2023-02-07T00:44:23;34.25;;;11.27;;
68074;SDS011;54864;52.002;5.468;2023-02-07T00:45:25;30.38;;;11.45;;
68074;SDS011;54864;52.002;5.468;2023-02-07T00:46:26;31.17;;;11.23;;
68074;SDS011;54864;52.002;5.468;2023-02-07T00:47:27;34.42;;;11.68;;
68074;SDS011;54864;52.002;5.468;2023-02-07T00:48:29;32.08;;;11.13;;
68074;SDS011;54864;52.002;5.468;2023-02-07T00:49:31;31.23;;;12.05;;
68074;SDS011;54864;52.002;5.468;2023-02-07T00:50:32;29.38;;;11.90;;
68074;SDS011;54864;52.002;5.468;2023-02-07T00:51:33;37.75;;;11.85;;
68074;SDS011;54864;52.002;5.468;2023-02-07T00:52:35;26.37;;;11.63;;
68074;SDS011;54864;52.002;5.468;2023-02-07T00:53:37;36.13;;;11.30;;
68074;SDS011;54864;52.002;5.468;2023-02-07T00:54:39;32.53;;;12.32;;
68074;SDS011;54864;52.002;5.468;2023-02-07T00:55:40;26.33;;;11.00;;
68074;SDS011;54864;52.002;5.468;2023-02-07T00:56:41;28.73;;;12.43;;
68074;SDS011;54864;52.002;5.468;2023-02-07T00:57:42;33.43;;;12.17;;
68074;SDS011;54864;52.002;5.468;2023-02-07T00:58:44;30.45;;;11.55;;
68074;SDS011;54864;52.002;5.468;2023-02-07T00:59:45;37.28;;;12.00;;
68074;SDS011;54864;52.002;5.468;2023-02-07T01:00:46;33.55;;;12.27;;
68074;SDS011;54864;52.002;5.468;2023-02-07T01:01:47;33.65;;;11.88;;
68074;SDS011;54864;52.002;5.468;2023-02-07T01:02:49;34.28;;;12.00;;
68074;SDS011;54864;52.002;5.468;2023-02-07T01:03:50;33.83;;;13.38;;
68074;SDS011;54864;52.002;5.468;2023-02-07T01:04:52;32.90;;;12.35;;
68074;SDS011;54864;52.002;5.468;2023-02-07T01:05:53;31.50;;;12.50;;
68074;SDS011;54864;52.002;5.468;2023-02-07T01:06:54;30.02;;;12.60;;
68074;SDS011;54864;52.002;5.468;2023-02-07T01:07:56;34.13;;;12.90;;
68074;SDS011;54864;52.002;5.468;2023-02-07T01:08:59;30.42;;;12.00;;
68074;SDS011;54864;52.002;5.468;2023-02-07T01:10:02;30.25;;;12.25;;
68074;SDS011;54864;52.002;5.468;2023-02-07T01:11:04;39.72;;;13.52;;
68074;SDS011;54864;52.002;5.468;2023-02-07T01:12:07;33.80;;;13.27;;
68074;SDS011;54864;52.002;5.468;2023-02-07T01:13:08;33.92;;;12.75;;
68074;SDS011;54864;52.002;5.468;2023-02-07T01:14:10;33.95;;;12.73;;
68074;SDS011;54864;52.002;5.468;2023-02-07T01:15:11;34.95;;;13.77;;
68074;SDS011;54864;52.002;5.468;2023-02-07T01:16:16;32.50;;;13.75;;
68074;SDS011;54864;52.002;5.468;2023-02-07T01:17:18;37.58;;;13.23;;
68074;SDS011;54864;52.002;5.468;2023-02-07T01:18:20;31.80;;;13.63;;
68074;SDS011;54864;52.002;5.468;2023-02-07T01:19:20;36.97;;;14.70;;
68074;SDS011;54864;52.002;5.468;2023-02-07T01:20:22;30.27;;;13.55;;
68074;SDS011;54864;52.002;5.468;2023-02-07T01:21:24;30.10;;;13.43;;
68074;SDS011;54864;52.002;5.468;2023-02-07T01:22:26;37.75;;;13.45;;
68074;SDS011;54864;52.002;5.468;2023-02-07T01:23:27;35.47;;;14.35;;
68074;SDS011;54864;52.002;5.468;2023-02-07T01:24:30;29.90;;;12.82;;
68074;SDS011;54864;52.002;5.468;2023-02-07T01:25:31;42.60;;;14.75;;
68074;SDS011;54864;52.002;5.468;2023-02-07T01:26:33;32.53;;;13.63;;
68074;SDS011;54864;52.002;5.468;2023-02-07T01:27:35;34.60;;;14.70;;
68074;SDS011;54864;52.002;5.468;2023-02-07T01:28:37;37.63;;;14.13;;
68074;SDS011;54864;52.002;5.468;2023-02-07T01:29:38;30.40;;;14.15;;
68074;SDS011;54864;52.002;5.468;2023-02-07T01:30:40;35.50;;;14.50;;
68074;SDS011;54864;52.002;5.468;2023-02-07T01:31:42;37.53;;;15.47;;
68074;SDS011;54864;52.002;5.468;2023-02-07T01:32:44;45.13;;;15.30;;
68074;SDS011;54864;52.002;5.468;2023-02-07T01:33:44;45.22;;;16.50;;
68074;SDS011;54864;52.002;5.468;2023-02-07T01:34:46;36.30;;;15.80;;
68074;SDS011;54864;52.002;5.468;2023-02-07T01:35:47;40.88;;;15.98;;
68074;SDS011;54864;52.002;5.468;2023-02-07T01:36:48;34.95;;;15.50;;
68074;SDS011;54864;52.002;5.468;2023-02-07T01:37:50;39.38;;;15.88;;
68074;SDS011;54864;52.002;5.468;2023-02-07T01:38:51;34.97;;;15.80;;
68074;SDS011;54864;52.002;5.468;2023-02-07T01:39:55;35.20;;;15.32;;
68074;SDS011;54864;52.002;5.468;2023-02-07T01:40:55;38.35;;;15.43;;
68074;SDS011;54864;52.002;5.468;2023-02-07T01:41:57;36.90;;;15.80;;
68074;SDS011;54864;52.002;5.468;2023-02-07T01:42:59;35.22;;;14.63;;
68074;SDS011;54864;52.002;5.468;2023-02-07T01:44:01;33.13;;;14.43;;
68074;SDS011;54864;52.002;5.468;2023-02-07T01:45:07;32.45;;;14.75;;
68074;SDS011;54864;52.002;5.468;2023-02-07T01:46:19;36.60;;;13.80;;
68074;SDS011;54864;52.002;5.468;2023-02-07T01:47:21;31.48;;;14.25;;
68074;SDS011;54864;52.002;5.468;2023-02-07T01:48:24;33.28;;;14.88;;
68074;SDS011;54864;52.002;5.468;2023-02-07T01:49:31;39.10;;;14.98;;
68074;SDS011;54864;52.002;5.468;2023-02-07T01:50:35;39.17;;;14.82;;
68074;SDS011;54864;52.002;5.468;2023-02-07T01:51:39;36.78;;;16.35;;
68074;SDS011;54864;52.002;5.468;2023-02-07T01:52:44;39.55;;;15.10;;
68074;SDS011;54864;52.002;5.468;2023-02-07T01:53:46;31.95;;;14.88;;
68074;SDS011;54864;52.002;5.468;2023-02-07T01:54:48;30.85;;;14.85;;
68074;SDS011;54864;52.002;5.468;2023-02-07T01:55:55;32.45;;;14.60;;
68074;SDS011;54864;52.002;5.468;2023-02-07T01:56:59;35.65;;;14.77;;
68074;SDS011;54864;52.002;5.468;2023-02-07T01:58:09;36.47;;;14.93;;
68074;SDS011;54864;52.002;5.468;2023-02-07T01:59:10;34.67;;;15.07;;
68074;SDS011;54864;52.002;5.468;2023-02-07T02:00:13;31.02;;;15.02;;
68074;SDS011;54864;52.002;5.468;2023-02-07T02:01:18;33.17;;;14.63;;
68074;SDS011;54864;52.002;5.468;2023-02-07T02:02:24;36.38;;;15.55;;
68074;SDS011;54864;52.002;5.468;2023-02-07T02:03:27;36.60;;;15.05;;
68074;SDS011;54864;52.002;5.468;2023-02-07T02:04:29;32.88;;;14.65;;
68074;SDS011;54864;52.002;5.468;2023-02-07T02:05:30;32.03;;;14.03;;
68074;SDS011;54864;52.002;5.468;2023-02-07T02:06:33;35.70;;;15.37;;
68074;SDS011;54864;52.002;5.468;2023-02-07T02:07:34;36.40;;;15.20;;
68074;SDS011;54864;52.002;5.468;2023-02-07T02:08:37;36.08;;;15.90;;
68074;SDS011;54864;52.002;5.468;2023-02-07T02:09:38;31.35;;;14.98;;
68074;SDS011;54864;52.002;5.468;2023-02-07T02:10:50;32.47;;;15.63;;
68074;SDS011;54864;52.002;5.468;2023-02-07T02:12:05;38.75;;;15.52;;
68074;SDS011;54864;52.002;5.468;2023-02-07T02:13:22;34.22;;;14.90;;
68074;SDS011;54864;52.002;5.468;2023-02-07T02:14:42;32.53;;;15.48;;
68074;SDS011;54864;52.002;5.468;2023-02-07T02:16:00;38.90;;;15.23;;
68074;SDS011;54864;52.002;5.468;2023-02-07T02:17:08;40.40;;;16.88;;
68074;SDS011;54864;52.002;5.468;2023-02-07T02:18:22;33.20;;;14.23;;
68074;SDS011;54864;52.002;5.468;2023-02-07T02:19:41;33.10;;;15.02;;
68074;SDS011;54864;52.002;5.468;2023-02-07T02:21:15;38.25;;;16.52;;
68074;SDS011;54864;52.002;5.468;2023-02-07T02:26:27;35.67;;;15.13;;
68074;SDS011;54864;52.002;5.468;2023-02-07T02:27:50;35.35;;;15.32;;
68074;SDS011;54864;52.002;5.468;2023-02-07T02:29:10;36.85;;;15.40;;
68074;SDS011;54864;52.002;5.468;2023-02-07T02:30:51;35.70;;;16.35;;
68074;SDS011;54864;52.002;5.468;2023-02-07T02:33:42;40.92;;;16.90;;
68074;SDS011;54864;52.002;5.468;2023-02-07T02:34:49;38.75;;;15.80;;
68074;SDS011;54864;52.002;5.468;2023-02-07T02:35:56;33.85;;;15.75;;
68074;SDS011;54864;52.002;5.468;2023-02-07T02:37:12;34.90;;;16.27;;
68074;SDS011;54864;52.002;5.468;2023-02-07T02:38:24;36.78;;;17.05;;
68074;SDS011;54864;52.002;5.468;2023-02-07T02:39:33;36.72;;;16.58;;
68074;SDS011;54864;52.002;5.468;2023-02-07T02:40:43;36.35;;;17.35;;
68074;SDS011;54864;52.002;5.468;2023-02-07T02:41:55;41.53;;;17.95;;
68074;SDS011;54864;52.002;5.468;2023-02-07T02:43:05;38.95;;;18.48;;
68074;SDS011;54864;52.002;5.468;2023-02-07T02:44:15;40.72;;;18.27;;
68074;SDS011;54864;52.002;5.468;2023-02-07T02:45:22;40.28;;;18.83;;
68074;SDS011;54864;52.002;5.468;2023-02-07T02:46:32;41.30;;;18.27;;
68074;SDS011;54864;52.002;5.468;2023-02-07T02:47:37;40.35;;;18.15;;
68074;SDS011;54864;52.002;5.468;2023-02-07T02:48:45;36.73;;;17.67;;
68074;SDS011;54864;52.002;5.468;2023-02-07T02:49:47;45.55;;;17.67;;
68074;SDS011;54864;52.002;5.468;2023-02-07T02:50:49;38.92;;;18.05;;
68074;SDS011;54864;52.002;5.468;2023-02-07T02:51:52;35.03;;;18.02;;
68074;SDS011;54864;52.002;5.468;2023-02-07T02:52:54;40.30;;;18.10;;
68074;SDS011;54864;52.002;5.468;2023-02-07T02:53:56;39.80;;;18.40;;
68074;SDS011;54864;52.002;5.468;2023-02-07T02:54:59;37.72;;;18.05;;
68074;SDS011;54864;52.002;5.468;2023-02-07T02:56:13;41.83;;;18.67;;
68074;SDS011;54864;52.002;5.468;2023-02-07T02:57:36;40.63;;;18.65;;
68074;SDS011;54864;52.002;5.468;2023-02-07T02:58:53;39.90;;;18.23;;
68074;SDS011;54864;52.002;5.468;2023-02-07T03:00:21;40.38;;;18.83;;
68074;SDS011;54864;52.002;5.468;2023-02-07T03:01:32;39.28;;;18.33;;
68074;SDS011;54864;52.002;5.468;2023-02-07T03:02:47;39.35;;;18.13;;
68074;SDS011;54864;52.002;5.468;2023-02-07T03:04:01;39.80;;;18.55;;
68074;SDS011;54864;52.002;5.468;2023-02-07T03:05:17;40.15;;;18.15;;
68074;SDS011;54864;52.002;5.468;2023-02-07T03:06:34;40.95;;;19.42;;
68074;SDS011;54864;52.002;5.468;2023-02-07T03:07:53;41.97;;;18.63;;
68074;SDS011;54864;52.002;5.468;2023-02-07T03:09:03;39.53;;;19.38;;
68074;SDS011;54864;52.002;5.468;2023-02-07T03:10:18;42.58;;;18.98;;
68074;SDS011;54864;52.002;5.468;2023-02-07T03:11:29;38.67;;;18.73;;
68074;SDS011;54864;52.002;5.468;2023-02-07T03:12:38;43.22;;;18.98;;
68074;SDS011;54864;52.002;5.468;2023-02-07T03:13:49;37.35;;;18.13;;
68074;SDS011;54864;52.002;5.468;2023-02-07T03:15:00;42.13;;;20.60;;
68074;SDS011;54864;52.002;5.468;2023-02-07T03:16:08;37.63;;;20.05;;
68074;SDS011;54864;52.002;5.468;2023-02-07T03:17:15;38.90;;;19.08;;
68074;SDS011;54864;52.002;5.468;2023-02-07T03:18:25;41.97;;;20.38;;
68074;SDS011;54864;52.002;5.468;2023-02-07T03:19:33;39.45;;;20.83;;
68074;SDS011;54864;52.002;5.468;2023-02-07T03:20:38;47.75;;;20.60;;
68074;SDS011;54864;52.002;5.468;2023-02-07T03:21:46;39.92;;;19.15;;
68074;SDS011;54864;52.002;5.468;2023-02-07T03:22:55;42.50;;;20.33;;
68074;SDS011;54864;52.002;5.468;2023-02-07T03:24:01;40.50;;;19.25;;
68074;SDS011;54864;52.002;5.468;2023-02-07T03:25:08;43.80;;;19.60;;
68074;SDS011;54864;52.002;5.468;2023-02-07T03:26:12;42.22;;;20.05;;
68074;SDS011;54864;52.002;5.468;2023-02-07T03:27:14;41.08;;;20.42;;
68074;SDS011;54864;52.002;5.468;2023-02-07T03:28:20;42.35;;;20.55;;
68074;SDS011;54864;52.002;5.468;2023-02-07T03:29:21;39.20;;;19.55;;
68074;SDS011;54864;52.002;5.468;2023-02-07T03:30:25;41.47;;;20.33;;
68074;SDS011;54864;52.002;5.468;2023-02-07T03:31:30;41.15;;;20.58;;
68074;SDS011;54864;52.002;5.468;2023-02-07T03:32:35;45.17;;;20.40;;
68074;SDS011;54864;52.002;5.468;2023-02-07T03:33:40;39.90;;;20.90;;
68074;SDS011;54864;52.002;5.468;2023-02-07T03:34:42;38.35;;;20.55;;
68074;SDS011;54864;52.002;5.468;2023-02-07T03:35:51;44.35;;;21.00;;
68074;SDS011;54864;52.002;5.468;2023-02-07T03:36:57;44.22;;;20.88;;
68074;SDS011;54864;52.002;5.468;2023-02-07T03:38:03;48.83;;;21.63;;
68074;SDS011;54864;52.002;5.468;2023-02-07T03:39:05;41.95;;;21.67;;
68074;SDS011;54864;52.002;5.468;2023-02-07T03:40:09;41.15;;;20.75;;
68074;SDS011;54864;52.002;5.468;2023-02-07T03:41:13;44.33;;;20.88;;
68074;SDS011;54864;52.002;5.468;2023-02-07T03:42:22;47.27;;;22.27;;
68074;SDS011;54864;52.002;5.468;2023-02-07T03:43:28;50.40;;;21.95;;
68074;SDS011;54864;52.002;5.468;2023-02-07T03:44:33;44.35;;;21.15;;
68074;SDS011;54864;52.002;5.468;2023-02-07T03:45:35;49.30;;;21.80;;
68074;SDS011;54864;52.002;5.468;2023-02-07T03:46:37;42.40;;;20.60;;
68074;SDS011;54864;52.002;5.468;2023-02-07T03:47:38;43.83;;;21.52;;
68074;SDS011;54864;52.002;5.468;2023-02-07T03:48:42;41.78;;;20.65;;
68074;SDS011;54864;52.002;5.468;2023-02-07T03:49:42;42.13;;;20.13;;
68074;SDS011;54864;52.002;5.468;2023-02-07T03:50:44;44.90;;;20.63;;
68074;SDS011;54864;52.002;5.468;2023-02-07T03:51:46;42.10;;;21.75;;
68074;SDS011;54864;52.002;5.468;2023-02-07T03:52:49;42.03;;;20.58;;
68074;SDS011;54864;52.002;5.468;2023-02-07T03:53:50;43.50;;;21.05;;
68074;SDS011;54864;52.002;5.468;2023-02-07T03:54:51;39.08;;;20.95;;
68074;SDS011;54864;52.002;5.468;2023-02-07T03:55:53;46.10;;;21.60;;
68074;SDS011;54864;52.002;5.468;2023-02-07T03:56:54;44.63;;;22.27;;
68074;SDS011;54864;52.002;5.468;2023-02-07T03:57:55;48.40;;;21.67;;
68074;SDS011;54864;52.002;5.468;2023-02-07T03:58:59;42.03;;;21.38;;
68074;SDS011;54864;52.002;5.468;2023-02-07T04:00:01;43.50;;;21.23;;
68074;SDS011;54864;52.002;5.468;2023-02-07T04:01:04;45.50;;;21.00;;
68074;SDS011;54864;52.002;5.468;2023-02-07T04:02:05;48.78;;;21.83;;
68074;SDS011;54864;52.002;5.468;2023-02-07T04:03:06;42.70;;;21.63;;
68074;SDS011;54864;52.002;5.468;2023-02-07T04:04:09;45.42;;;21.92;;
68074;SDS011;54864;52.002;5.468;2023-02-07T04:05:10;41.53;;;20.95;;
68074;SDS011;54864;52.002;5.468;2023-02-07T04:06:12;52.25;;;22.48;;
68074;SDS011;54864;52.002;5.468;2023-02-07T04:07:13;43.22;;;21.50;;
68074;SDS011;54864;52.002;5.468;2023-02-07T04:08:15;49.20;;;21.50;;
68074;SDS011;54864;52.002;5.468;2023-02-07T04:09:16;38.85;;;21.83;;
68074;SDS011;54864;52.002;5.468;2023-02-07T04:10:18;45.08;;;21.38;;
68074;SDS011;54864;52.002;5.468;2023-02-07T04:11:18;40.25;;;21.25;;
68074;SDS011;54864;52.002;5.468;2023-02-07T04:12:20;46.00;;;21.70;;
68074;SDS011;54864;52.002;5.468;2023-02-07T04:13:21;38.40;;;20.48;;
68074;SDS011;54864;52.002;5.468;2023-02-07T04:14:23;45.75;;;21.00;;
68074;SDS011;54864;52.002;5.468;2023-02-07T04:15:23;46.92;;;21.75;;
68074;SDS011;54864;52.002;5.468;2023-02-07T04:16:25;43.38;;;21.63;;
68074;SDS011;54864;52.002;5.468;2023-02-07T04:17:26;38.27;;;21.87;;
68074;SDS011;54864;52.002;5.468;2023-02-07T04:18:28;47.77;;;22.20;;
68074;SDS011;54864;52.002;5.468;2023-02-07T04:19:30;45.97;;;21.63;;
68074;SDS011;54864;52.002;5.468;2023-02-07T04:20:32;42.40;;;21.80;;
68074;SDS011;54864;52.002;5.468;2023-02-07T04:21:33;47.20;;;22.10;;
68074;SDS011;54864;52.002;5.468;2023-02-07T04:22:34;44.15;;;21.58;;
68074;SDS011;54864;52.002;5.468;2023-02-07T04:23:35;44.78;;;22.52;;
68074;SDS011;54864;52.002;5.468;2023-02-07T04:24:37;46.38;;;22.45;;
68074;SDS011;54864;52.002;5.468;2023-02-07T04:25:38;42.08;;;22.55;;
68074;SDS011;54864;52.002;5.468;2023-02-07T04:26:39;42.95;;;21.00;;
68074;SDS011;54864;52.002;5.468;2023-02-07T04:27:40;43.10;;;22.10;;
68074;SDS011;54864;52.002;5.468;2023-02-07T04:28:42;44.78;;;21.60;;
68074;SDS011;54864;52.002;5.468;2023-02-07T04:29:43;44.30;;;21.00;;
68074;SDS011;54864;52.002;5.468;2023-02-07T04:30:45;42.75;;;22.00;;
68074;SDS011;54864;52.002;5.468;2023-02-07T04:31:45;49.28;;;21.45;;
68074;SDS011;54864;52.002;5.468;2023-02-07T04:32:47;43.03;;;21.15;;
68074;SDS011;54864;52.002;5.468;2023-02-07T04:33:48;42.10;;;21.13;;
68074;SDS011;54864;52.002;5.468;2023-02-07T04:34:51;39.87;;;20.60;;
68074;SDS011;54864;52.002;5.468;2023-02-07T04:35:55;43.92;;;21.63;;
68074;SDS011;54864;52.002;5.468;2023-02-07T04:36:57;42.22;;;21.40;;
68074;SDS011;54864;52.002;5.468;2023-02-07T04:37:59;49.53;;;21.88;;
68074;SDS011;54864;52.002;5.468;2023-02-07T04:38:59;42.17;;;21.23;;
68074;SDS011;54864;52.002;5.468;2023-02-07T04:40:01;48.05;;;22.80;;
68074;SDS011;54864;52.002;5.468;2023-02-07T04:41:03;43.33;;;22.65;;
68074;SDS011;54864;52.002;5.468;2023-02-07T04:42:06;48.93;;;22.70;;
68074;SDS011;54864;52.002;5.468;2023-02-07T04:43:07;42.43;;;21.50;;
68074;SDS011;54864;52.002;5.468;2023-02-07T04:44:08;37.53;;;20.77;;
68074;SDS011;54864;52.002;5.468;2023-02-07T04:45:09;43.65;;;21.25;;
68074;SDS011;54864;52.002;5.468;2023-02-07T04:46:11;42.50;;;20.65;;
68074;SDS011;54864;52.002;5.468;2023-02-07T04:47:11;42.23;;;21.10;;
68074;SDS011;54864;52.002;5.468;2023-02-07T04:48:13;44.25;;;22.38;;
68074;SDS011;54864;52.002;5.468;2023-02-07T04:49:14;46.00;;;21.25;;
68074;SDS011;54864;52.002;5.468;2023-02-07T04:50:17;40.92;;;21.88;;
68074;SDS011;54864;52.002;5.468;2023-02-07T04:51:18;41.63;;;21.02;;
68074;SDS011;54864;52.002;5.468;2023-02-07T04:52:20;46.92;;;22.17;;
68074;SDS011;54864;52.002;5.468;2023-02-07T04:53:23;45.42;;;22.40;;
68074;SDS011;54864;52.002;5.468;2023-02-07T04:54:28;44.40;;;21.85;;
68074;SDS011;54864;52.002;5.468;2023-02-07T04:55:28;47.23;;;23.70;;
68074;SDS011;54864;52.002;5.468;2023-02-07T04:56:30;44.83;;;21.38;;
68074;SDS011;54864;52.002;5.468;2023-02-07T04:57:31;43.78;;;21.35;;
68074;SDS011;54864;52.002;5.468;2023-02-07T04:58:33;44.17;;;22.63;;
68074;SDS011;54864;52.002;5.468;2023-02-07T04:59:33;41.00;;;22.00;;
68074;SDS011;54864;52.002;5.468;2023-02-07T05:00:35;44.42;;;23.27;;
68074;SDS011;54864;52.002;5.468;2023-02-07T05:01:36;41.40;;;22.58;;
68074;SDS011;54864;52.002;5.468;2023-02-07T05:02:38;48.42;;;23.02;;
68074;SDS011;54864;52.002;5.468;2023-02-07T05:03:38;39.78;;;22.45;;
68074;SDS011;54864;52.002;5.468;2023-02-07T05:04:40;42.13;;;20.63;;
68074;SDS011;54864;52.002;5.468;2023-02-07T05:05:43;38.53;;;21.80;;
68074;SDS011;54864;52.002;5.468;2023-02-07T05:06:45;45.90;;;22.00;;
68074;SDS011;54864;52.002;5.468;2023-02-07T05:07:46;43.40;;;22.75;;
68074;SDS011;54864;52.002;5.468;2023-02-07T05:08:48;44.78;;;23.45;;
68074;SDS011;54864;52.002;5.468;2023-02-07T05:09:49;46.60;;;22.75;;
68074;SDS011;54864;52.002;5.468;2023-02-07T05:10:51;45.35;;;22.20;;
68074;SDS011;54864;52.002;5.468;2023-02-07T05:11:53;42.75;;;22.23;;
68074;SDS011;54864;52.002;5.468;2023-02-07T05:12:54;49.63;;;23.25;;
68074;SDS011;54864;52.002;5.468;2023-02-07T05:13:55;46.40;;;23.30;;
68074;SDS011;54864;52.002;5.468;2023-02-07T05:14:57;48.35;;;23.38;;
68074;SDS011;54864;52.002;5.468;2023-02-07T05:15:57;50.03;;;22.75;;
68074;SDS011;54864;52.002;5.468;2023-02-07T05:17:02;45.55;;;22.90;;
68074;SDS011;54864;52.002;5.468;2023-02-07T05:18:03;45.05;;;23.13;;
68074;SDS011;54864;52.002;5.468;2023-02-07T05:19:05;47.57;;;23.07;;
68074;SDS011;54864;52.002;5.468;2023-02-07T05:20:06;43.20;;;22.17;;
68074;SDS011;54864;52.002;5.468;2023-02-07T05:21:10;48.67;;;22.83;;
68074;SDS011;54864;52.002;5.468;2023-02-07T05:22:11;43.83;;;22.88;;
68074;SDS011;54864;52.002;5.468;2023-02-07T05:23:12;47.47;;;23.87;;
68074;SDS011;54864;52.002;5.468;2023-02-07T05:24:14;44.40;;;22.80;;
68074;SDS011;54864;52.002;5.468;2023-02-07T05:25:16;41.67;;;22.90;;
68074;SDS011;54864;52.002;5.468;2023-02-07T05:26:16;45.45;;;23.00;;
68074;SDS011;54864;52.002;5.468;2023-02-07T05:27:18;47.88;;;24.15;;
68074;SDS011;54864;52.002;5.468;2023-02-07T05:28:19;50.23;;;23.23;;
68074;SDS011;54864;52.002;5.468;2023-02-07T05:29:20;44.22;;;23.02;;
68074;SDS011;54864;52.002;5.468;2023-02-07T05:30:22;45.15;;;25.25;;
68074;SDS011;54864;52.002;5.468;2023-02-07T05:31:23;47.15;;;24.17;;
68074;SDS011;54864;52.002;5.468;2023-02-07T05:32:45;52.10;;;25.58;;
68074;SDS011;54864;52.002;5.468;2023-02-07T05:34:04;44.40;;;23.33;;
68074;SDS011;54864;52.002;5.468;2023-02-07T05:35:05;52.65;;;24.63;;
68074;SDS011;54864;52.002;5.468;2023-02-07T05:36:07;44.22;;;24.50;;
68074;SDS011;54864;52.002;5.468;2023-02-07T05:37:11;44.85;;;24.42;;
68074;SDS011;54864;52.002;5.468;2023-02-07T05:38:12;52.05;;;26.45;;
68074;SDS011;54864;52.002;5.468;2023-02-07T05:39:16;48.27;;;24.47;;
68074;SDS011;54864;52.002;5.468;2023-02-07T05:40:17;53.37;;;26.00;;
68074;SDS011;54864;52.002;5.468;2023-02-07T05:41:19;58.08;;;26.52;;
68074;SDS011;54864;52.002;5.468;2023-02-07T05:42:19;47.60;;;24.42;;
68074;SDS011;54864;52.002;5.468;2023-02-07T05:43:21;52.15;;;25.83;;
68074;SDS011;54864;52.002;5.468;2023-02-07T05:44:23;51.78;;;24.95;;
68074;SDS011;54864;52.002;5.468;2023-02-07T05:45:24;53.10;;;25.33;;
68074;SDS011;54864;52.002;5.468;2023-02-07T05:46:26;55.47;;;25.70;;
68074;SDS011;54864;52.002;5.468;2023-02-07T05:47:27;51.97;;;26.15;;
68074;SDS011;54864;52.002;5.468;2023-02-07T05:48:29;59.08;;;25.98;;
68074;SDS011;54864;52.002;5.468;2023-02-07T05:49:31;52.65;;;25.63;;
68074;SDS011;54864;52.002;5.468;2023-02-07T05:50:31;56.03;;;27.20;;
68074;SDS011;54864;52.002;5.468;2023-02-07T05:51:34;52.75;;;26.50;;
68074;SDS011;54864;52.002;5.468;2023-02-07T05:52:38;54.42;;;27.13;;
68074;SDS011;54864;52.002;5.468;2023-02-07T05:53:40;50.67;;;25.30;;
68074;SDS011;54864;52.002;5.468;2023-02-07T05:54:41;52.92;;;25.20;;
68074;SDS011;54864;52.002;5.468;2023-02-07T05:55:43;52.63;;;26.10;;
68074;SDS011;54864;52.002;5.468;2023-02-07T05:56:43;47.57;;;24.50;;
68074;SDS011;54864;52.002;5.468;2023-02-07T05:57:45;46.15;;;25.70;;
68074;SDS011;54864;52.002;5.468;2023-02-07T05:58:46;52.47;;;26.13;;
68074;SDS011;54864;52.002;5.468;2023-02-07T05:59:48;56.58;;;25.65;;
68074;SDS011;54864;52.002;5.468;2023-02-07T06:00:48;46.70;;;24.88;;
68074;SDS011;54864;52.002;5.468;2023-02-07T06:01:50;54.60;;;27.48;;
68074;SDS011;54864;52.002;5.468;2023-02-07T06:02:51;52.70;;;27.10;;
68074;SDS011;54864;52.002;5.468;2023-02-07T06:03:53;49.63;;;25.80;;
68074;SDS011;54864;52.002;5.468;2023-02-07T06:04:54;50.47;;;25.97;;
68074;SDS011;54864;52.002;5.468;2023-02-07T06:05:55;53.50;;;27.08;;
68074;SDS011;54864;52.002;5.468;2023-02-07T06:06:57;50.78;;;26.55;;
68074;SDS011;54864;52.002;5.468;2023-02-07T06:07:59;48.58;;;26.25;;
68074;SDS011;54864;52.002;5.468;2023-02-07T06:09:01;50.47;;;27.02;;
68074;SDS011;54864;52.002;5.468;2023-02-07T06:10:02;50.03;;;25.83;;
68074;SDS011;54864;52.002;5.468;2023-02-07T06:11:04;48.15;;;24.65;;
68074;SDS011;54864;52.002;5.468;2023-02-07T06:12:05;49.35;;;26.67;;
68074;SDS011;54864;52.002;5.468;2023-02-07T06:13:07;53.05;;;26.13;;
68074;SDS011;54864;52.002;5.468;2023-02-07T06:14:08;49.80;;;25.57;;
68074;SDS011;54864;52.002;5.468;2023-02-07T06:15:09;50.70;;;25.48;;
68074;SDS011;54864;52.002;5.468;2023-02-07T06:16:10;53.58;;;25.60;;
68074;SDS011;54864;52.002;5.468;2023-02-07T06:17:12;49.42;;;25.48;;
68074;SDS011;54864;52.002;5.468;2023-02-07T06:18:13;47.40;;;25.00;;
68074;SDS011;54864;52.002;5.468;2023-02-07T06:19:15;50.45;;;25.70;;